sensor_id;sensor_type;location;lat;lon;timestamp;temperature;humidity
32322;DHT22;61553;48.994;8.940;2024-02-21T00:00:47;5.40;99.90
32322;DHT22;61553;48.994;8.940;2024-02-21T00:03:13;5.40;99.90
32322;DHT22;61553;48.994;8.940;2024-02-21T00:05:38;5.40;99.90
32322;DHT22;61553;48.994;8.940;2024-02-21T00:08:04;5.40;99.90
32322;DHT22;61553;48.994;8.940;2024-02-21T00:10:30;5.40;99.90
32322;DHT22;61553;48.994;8.940;2024-02-21T00:12:57;5.40;99.90
32322;DHT22;61553;48.994;8.940;2024-02-21T00:15:25;5.40;99.90
32322;DHT22;61553;48.994;8.940;2024-02-21T00:17:50;5.40;99.90
32322;DHT22;61553;48.994;8.940;2024-02-21T00:20:16;5.40;99.90
32322;DHT22;61553;48.994;8.940;2024-02-21T00:22:43;5.40;99.90
32322;DHT22;61553;48.994;8.940;2024-02-21T00:25:08;5.40;99.90
32322;DHT22;61553;48.994;8.940;2024-02-21T00:27:34;5.50;99.90
32322;DHT22;61553;48.994;8.940;2024-02-21T00:30:00;5.50;99.90
32322;DHT22;61553;48.994;8.940;2024-02-21T00:32:25;5.60;99.90
32322;DHT22;61553;48.994;8.940;2024-02-21T00:34:51;5.60;99.90
32322;DHT22;61553;48.994;8.940;2024-02-21T00:37:17;5.60;99.90
32322;DHT22;61553;48.994;8.940;2024-02-21T00:39:43;5.60;99.90
32322;DHT22;61553;48.994;8.940;2024-02-21T00:42:08;5.50;99.90
32322;DHT22;61553;48.994;8.940;2024-02-21T00:44:34;5.50;99.90
32322;DHT22;61553;48.994;8.940;2024-02-21T00:47:00;5.50;99.90
32322;DHT22;61553;48.994;8.940;2024-02-21T00:49:25;5.40;99.90
32322;DHT22;61553;48.994;8.940;2024-02-21T00:51:51;5.50;99.90
32322;DHT22;61553;48.994;8.940;2024-02-21T00:54:17;5.50;99.90
32322;DHT22;61553;48.994;8.940;2024-02-21T00:56:43;5.50;99.90
32322;DHT22;61553;48.994;8.940;2024-02-21T00:59:08;5.40;99.90
32322;DHT22;61553;48.994;8.940;2024-02-21T01:01:34;5.40;99.90
32322;DHT22;61553;48.994;8.940;2024-02-21T01:03:59;5.50;99.90
32322;DHT22;61553;48.994;8.940;2024-02-21T01:06:25;5.40;99.90
32322;DHT22;61553;48.994;8.940;2024-02-21T01:08:51;5.50;99.90
32322;DHT22;61553;48.994;8.940;2024-02-21T01:11:17;5.50;99.90
32322;DHT22;61553;48.994;8.940;2024-02-21T01:13:43;5.40;99.90
32322;DHT22;61553;48.994;8.940;2024-02-21T01:16:09;5.40;99.90
32322;DHT22;61553;48.994;8.940;2024-02-21T01:18:37;5.50;99.90
32322;DHT22;61553;48.994;8.940;2024-02-21T01:21:03;5.50;99.90
32322;DHT22;61553;48.994;8.940;2024-02-21T01:23:32;5.50;99.90
32322;DHT22;61553;48.994;8.940;2024-02-21T01:25:58;5.50;99.90
32322;DHT22;61553;48.994;8.940;2024-02-21T01:28:24;5.50;99.90
32322;DHT22;61553;48.994;8.940;2024-02-21T01:30:49;5.50;99.90
32322;DHT22;61553;48.994;8.940;2024-02-21T01:33:15;5.60;99.90
32322;DHT22;61553;48.994;8.940;2024-02-21T01:35:40;5.60;99.90
32322;DHT22;61553;48.994;8.940;2024-02-21T01:38:06;5.70;99.90
32322;DHT22;61553;48.994;8.940;2024-02-21T01:40:31;5.70;99.90
32322;DHT22;61553;48.994;8.940;2024-02-21T01:42:57;5.70;99.90
32322;DHT22;61553;48.994;8.940;2024-02-21T01:45:23;5.70;99.90
32322;DHT22;61553;48.994;8.940;2024-02-21T01:47:49;5.70;99.90
32322;DHT22;61553;48.994;8.940;2024-02-21T01:50:16;5.80;99.90
32322;DHT22;61553;48.994;8.940;2024-02-21T01:52:43;5.90;99.90
32322;DHT22;61553;48.994;8.940;2024-02-21T01:55:11;5.90;99.90
32322;DHT22;61553;48.994;8.940;2024-02-21T01:57:39;6.00;99.90
32322;DHT22;61553;48.994;8.940;2024-02-21T02:00:06;6.00;99.90
32322;DHT22;61553;48.994;8.940;2024-02-21T02:02:32;6.10;99.90
32322;DHT22;61553;48.994;8.940;2024-02-21T02:04:58;6.00;99.90
32322;DHT22;61553;48.994;8.940;2024-02-21T02:07:24;6.00;99.90
32322;DHT22;61553;48.994;8.940;2024-02-21T02:09:50;6.00;99.90
32322;DHT22;61553;48.994;8.940;2024-02-21T02:12:16;6.10;99.90
32322;DHT22;61553;48.994;8.940;2024-02-21T02:14:41;6.00;99.90
32322;DHT22;61553;48.994;8.940;2024-02-21T02:17:07;5.90;99.90
32322;DHT22;61553;48.994;8.940;2024-02-21T02:19:34;5.90;99.90
32322;DHT22;61553;48.994;8.940;2024-02-21T02:22:09;5.90;99.90
32322;DHT22;61553;48.994;8.940;2024-02-21T02:24:36;5.90;99.90
32322;DHT22;61553;48.994;8.940;2024-02-21T02:27:02;6.00;99.90
32322;DHT22;61553;48.994;8.940;2024-02-21T02:29:28;6.00;99.90
32322;DHT22;61553;48.994;8.940;2024-02-21T02:31:53;6.10;99.90
32322;DHT22;61553;48.994;8.940;2024-02-21T02:34:19;6.10;99.90
32322;DHT22;61553;48.994;8.940;2024-02-21T02:36:44;6.10;99.90
32322;DHT22;61553;48.994;8.940;2024-02-21T02:39:10;6.10;99.90
32322;DHT22;61553;48.994;8.940;2024-02-21T02:41:36;6.10;99.90
32322;DHT22;61553;48.994;8.940;2024-02-21T02:44:02;6.20;99.90
32322;DHT22;61553;48.994;8.940;2024-02-21T02:46:27;6.20;99.90
32322;DHT22;61553;48.994;8.940;2024-02-21T02:48:53;6.10;99.90
32322;DHT22;61553;48.994;8.940;2024-02-21T02:51:19;6.00;99.90
32322;DHT22;61553;48.994;8.940;2024-02-21T02:53:44;6.00;99.90
32322;DHT22;61553;48.994;8.940;2024-02-21T02:56:16;6.00;99.90
32322;DHT22;61553;48.994;8.940;2024-02-21T02:58:43;5.90;99.90
32322;DHT22;61553;48.994;8.940;2024-02-21T03:01:09;5.90;99.90
32322;DHT22;61553;48.994;8.940;2024-02-21T03:03:34;5.90;99.90
32322;DHT22;61553;48.994;8.940;2024-02-21T03:06:00;5.80;99.90
32322;DHT22;61553;48.994;8.940;2024-02-21T03:08:26;5.70;99.90
32322;DHT22;61553;48.994;8.940;2024-02-21T03:10:51;5.70;99.90
32322;DHT22;61553;48.994;8.940;2024-02-21T03:13:17;5.70;99.90
32322;DHT22;61553;48.994;8.940;2024-02-21T03:15:43;5.70;99.90
32322;DHT22;61553;48.994;8.940;2024-02-21T03:18:08;5.70;99.90
32322;DHT22;61553;48.994;8.940;2024-02-21T03:20:34;5.70;99.90
32322;DHT22;61553;48.994;8.940;2024-02-21T03:22:59;5.70;99.90
32322;DHT22;61553;48.994;8.940;2024-02-21T03:25:25;5.60;99.90
32322;DHT22;61553;48.994;8.940;2024-02-21T03:27:50;5.70;99.90
32322;DHT22;61553;48.994;8.940;2024-02-21T03:30:17;5.60;99.90
32322;DHT22;61553;48.994;8.940;2024-02-21T03:32:42;5.60;99.90
32322;DHT22;61553;48.994;8.940;2024-02-21T03:35:08;5.60;99.90
32322;DHT22;61553;48.994;8.940;2024-02-21T03:37:34;5.40;99.90
32322;DHT22;61553;48.994;8.940;2024-02-21T03:39:59;5.40;99.90
32322;DHT22;61553;48.994;8.940;2024-02-21T03:42:25;5.40;99.90
32322;DHT22;61553;48.994;8.940;2024-02-21T03:44:51;5.40;99.90
32322;DHT22;61553;48.994;8.940;2024-02-21T03:47:16;5.50;99.90
32322;DHT22;61553;48.994;8.940;2024-02-21T03:49:42;5.50;99.90
32322;DHT22;61553;48.994;8.940;2024-02-21T03:52:07;5.40;99.90
32322;DHT22;61553;48.994;8.940;2024-02-21T03:54:34;5.50;99.90
32322;DHT22;61553;48.994;8.940;2024-02-21T03:57:00;5.30;99.90
32322;DHT22;61553;48.994;8.940;2024-02-21T03:59:25;5.20;99.90
32322;DHT22;61553;48.994;8.940;2024-02-21T04:01:54;5.30;99.90
32322;DHT22;61553;48.994;8.940;2024-02-21T04:04:20;5.10;99.90
32322;DHT22;61553;48.994;8.940;2024-02-21T04:06:49;5.20;99.90
32322;DHT22;61553;48.994;8.940;2024-02-21T04:09:15;5.00;99.90
32322;DHT22;61553;48.994;8.940;2024-02-21T04:11:40;5.10;99.90
32322;DHT22;61553;48.994;8.940;2024-02-21T04:14:06;5.00;99.90
32322;DHT22;61553;48.994;8.940;2024-02-21T04:16:32;4.90;99.90
32322;DHT22;61553;48.994;8.940;2024-02-21T04:18:58;4.90;99.90
32322;DHT22;61553;48.994;8.940;2024-02-21T04:21:23;4.80;99.90
32322;DHT22;61553;48.994;8.940;2024-02-21T04:23:50;4.80;99.90
32322;DHT22;61553;48.994;8.940;2024-02-21T04:26:15;4.90;99.90
32322;DHT22;61553;48.994;8.940;2024-02-21T04:28:41;4.90;99.90
32322;DHT22;61553;48.994;8.940;2024-02-21T04:31:06;4.80;99.90
32322;DHT22;61553;48.994;8.940;2024-02-21T04:33:32;4.80;99.90
32322;DHT22;61553;48.994;8.940;2024-02-21T04:35:58;4.80;99.90
32322;DHT22;61553;48.994;8.940;2024-02-21T04:38:24;4.60;99.90
32322;DHT22;61553;48.994;8.940;2024-02-21T04:40:50;4.50;99.90
32322;DHT22;61553;48.994;8.940;2024-02-21T04:43:16;4.40;99.90
32322;DHT22;61553;48.994;8.940;2024-02-21T04:45:41;4.40;99.90
32322;DHT22;61553;48.994;8.940;2024-02-21T04:48:07;4.20;99.90
32322;DHT22;61553;48.994;8.940;2024-02-21T04:50:33;4.10;99.90
32322;DHT22;61553;48.994;8.940;2024-02-21T04:52:58;4.10;99.90
32322;DHT22;61553;48.994;8.940;2024-02-21T04:55:24;4.00;99.90
32322;DHT22;61553;48.994;8.940;2024-02-21T04:57:49;3.90;99.90
32322;DHT22;61553;48.994;8.940;2024-02-21T05:00:15;3.80;99.90
32322;DHT22;61553;48.994;8.940;2024-02-21T05:02:41;3.60;99.90
32322;DHT22;61553;48.994;8.940;2024-02-21T05:05:07;3.60;99.90
32322;DHT22;61553;48.994;8.940;2024-02-21T05:07:32;3.40;99.90
32322;DHT22;61553;48.994;8.940;2024-02-21T05:10:00;3.40;99.90
32322;DHT22;61553;48.994;8.940;2024-02-21T05:12:25;3.40;99.90
32322;DHT22;61553;48.994;8.940;2024-02-21T05:14:51;3.40;99.90
32322;DHT22;61553;48.994;8.940;2024-02-21T05:17:17;3.50;99.90
32322;DHT22;61553;48.994;8.940;2024-02-21T05:19:42;3.50;99.90
32322;DHT22;61553;48.994;8.940;2024-02-21T05:22:08;3.50;99.90
32322;DHT22;61553;48.994;8.940;2024-02-21T05:24:33;3.50;99.90
32322;DHT22;61553;48.994;8.940;2024-02-21T05:26:59;3.40;99.90
32322;DHT22;61553;48.994;8.940;2024-02-21T05:29:24;3.40;99.90
32322;DHT22;61553;48.994;8.940;2024-02-21T05:34:19;3.30;99.90
32322;DHT22;61553;48.994;8.940;2024-02-21T05:36:45;3.30;99.90
32322;DHT22;61553;48.994;8.940;2024-02-21T05:39:12;3.40;99.90
32322;DHT22;61553;48.994;8.940;2024-02-21T05:41:37;3.20;99.90
32322;DHT22;61553;48.994;8.940;2024-02-21T05:44:03;3.30;99.90
32322;DHT22;61553;48.994;8.940;2024-02-21T05:46:29;3.10;99.90
32322;DHT22;61553;48.994;8.940;2024-02-21T05:48:54;3.20;99.90
32322;DHT22;61553;48.994;8.940;2024-02-21T05:51:20;3.10;99.90
32322;DHT22;61553;48.994;8.940;2024-02-21T05:53:47;3.10;99.90
32322;DHT22;61553;48.994;8.940;2024-02-21T05:56:13;3.10;99.90
32322;DHT22;61553;48.994;8.940;2024-02-21T05:58:40;2.90;99.90
32322;DHT22;61553;48.994;8.940;2024-02-21T06:01:06;2.90;99.90
32322;DHT22;61553;48.994;8.940;2024-02-21T06:03:32;2.80;99.90
32322;DHT22;61553;48.994;8.940;2024-02-21T06:05:59;2.80;99.90
32322;DHT22;61553;48.994;8.940;2024-02-21T06:08:25;2.70;99.90
32322;DHT22;61553;48.994;8.940;2024-02-21T06:10:50;2.70;99.90
32322;DHT22;61553;48.994;8.940;2024-02-21T06:13:25;2.70;99.90
32322;DHT22;61553;48.994;8.940;2024-02-21T06:15:51;2.70;99.90
32322;DHT22;61553;48.994;8.940;2024-02-21T06:18:17;2.70;99.90
32322;DHT22;61553;48.994;8.940;2024-02-21T06:20:43;2.60;99.90
32322;DHT22;61553;48.994;8.940;2024-02-21T06:23:09;2.60;99.90
32322;DHT22;61553;48.994;8.940;2024-02-21T06:25:35;2.60;99.90
32322;DHT22;61553;48.994;8.940;2024-02-21T06:28:00;2.50;99.90
32322;DHT22;61553;48.994;8.940;2024-02-21T06:30:26;2.40;99.90
32322;DHT22;61553;48.994;8.940;2024-02-21T06:32:52;2.40;99.90
32322;DHT22;61553;48.994;8.940;2024-02-21T06:35:19;2.30;99.90
32322;DHT22;61553;48.994;8.940;2024-02-21T06:37:44;2.30;99.90
32322;DHT22;61553;48.994;8.940;2024-02-21T06:40:16;2.30;99.90
32322;DHT22;61553;48.994;8.940;2024-02-21T06:42:41;2.30;99.90
32322;DHT22;61553;48.994;8.940;2024-02-21T06:45:07;2.30;99.90
32322;DHT22;61553;48.994;8.940;2024-02-21T06:47:33;2.40;99.90
32322;DHT22;61553;48.994;8.940;2024-02-21T06:49:58;2.50;99.90
32322;DHT22;61553;48.994;8.940;2024-02-21T06:52:24;2.60;99.90
32322;DHT22;61553;48.994;8.940;2024-02-21T06:54:50;2.90;99.90
32322;DHT22;61553;48.994;8.940;2024-02-21T06:57:16;2.70;99.90
32322;DHT22;61553;48.994;8.940;2024-02-21T06:59:42;3.00;99.90
32322;DHT22;61553;48.994;8.940;2024-02-21T07:02:07;2.90;99.90
32322;DHT22;61553;48.994;8.940;2024-02-21T07:04:33;3.00;99.90
32322;DHT22;61553;48.994;8.940;2024-02-21T07:06:59;3.10;99.90
32322;DHT22;61553;48.994;8.940;2024-02-21T07:09:25;3.20;99.90
32322;DHT22;61553;48.994;8.940;2024-02-21T07:11:51;3.40;99.90
32322;DHT22;61553;48.994;8.940;2024-02-21T07:14:18;3.50;99.90
32322;DHT22;61553;48.994;8.940;2024-02-21T07:16:44;3.50;99.90
32322;DHT22;61553;48.994;8.940;2024-02-21T07:19:09;3.70;99.90
32322;DHT22;61553;48.994;8.940;2024-02-21T07:21:38;4.00;99.90
32322;DHT22;61553;48.994;8.940;2024-02-21T07:24:06;4.10;99.90
32322;DHT22;61553;48.994;8.940;2024-02-21T07:26:33;4.20;99.90
32322;DHT22;61553;48.994;8.940;2024-02-21T07:28:58;4.50;99.90
32322;DHT22;61553;48.994;8.940;2024-02-21T07:31:24;4.70;99.90
32322;DHT22;61553;48.994;8.940;2024-02-21T07:33:50;4.80;99.90
32322;DHT22;61553;48.994;8.940;2024-02-21T07:36:16;5.00;99.90
32322;DHT22;61553;48.994;8.940;2024-02-21T07:38:49;5.30;99.90
32322;DHT22;61553;48.994;8.940;2024-02-21T07:41:15;5.50;99.90
32322;DHT22;61553;48.994;8.940;2024-02-21T07:43:41;5.70;99.90
32322;DHT22;61553;48.994;8.940;2024-02-21T07:46:07;5.70;99.90
32322;DHT22;61553;48.994;8.940;2024-02-21T07:48:32;5.80;99.90
32322;DHT22;61553;48.994;8.940;2024-02-21T07:50:58;6.00;99.90
32322;DHT22;61553;48.994;8.940;2024-02-21T07:53:23;6.20;99.90
32322;DHT22;61553;48.994;8.940;2024-02-21T07:55:49;6.40;99.90
32322;DHT22;61553;48.994;8.940;2024-02-21T07:58:15;6.40;99.90
32322;DHT22;61553;48.994;8.940;2024-02-21T08:00:40;6.60;99.90
32322;DHT22;61553;48.994;8.940;2024-02-21T08:03:06;6.90;99.90
32322;DHT22;61553;48.994;8.940;2024-02-21T08:05:34;7.20;99.90
32322;DHT22;61553;48.994;8.940;2024-02-21T08:08:00;7.30;99.90
32322;DHT22;61553;48.994;8.940;2024-02-21T08:10:26;7.60;99.90
32322;DHT22;61553;48.994;8.940;2024-02-21T08:12:51;7.80;99.90
32322;DHT22;61553;48.994;8.940;2024-02-21T08:15:17;8.00;99.90
32322;DHT22;61553;48.994;8.940;2024-02-21T08:17:43;8.20;99.90
32322;DHT22;61553;48.994;8.940;2024-02-21T08:20:09;8.20;99.90
32322;DHT22;61553;48.994;8.940;2024-02-21T08:22:37;8.30;99.90
32322;DHT22;61553;48.994;8.940;2024-02-21T08:25:03;8.60;99.90
32322;DHT22;61553;48.994;8.940;2024-02-21T08:27:31;9.40;99.90
32322;DHT22;61553;48.994;8.940;2024-02-21T08:29:56;10.10;99.90
32322;DHT22;61553;48.994;8.940;2024-02-21T08:32:22;10.10;99.90
32322;DHT22;61553;48.994;8.940;2024-02-21T08:34:47;10.30;99.90
32322;DHT22;61553;48.994;8.940;2024-02-21T08:37:13;10.80;99.90
32322;DHT22;61553;48.994;8.940;2024-02-21T08:39:39;11.00;99.90
32322;DHT22;61553;48.994;8.940;2024-02-21T08:42:05;10.90;99.90
32322;DHT22;61553;48.994;8.940;2024-02-21T08:44:30;10.60;99.90
32322;DHT22;61553;48.994;8.940;2024-02-21T08:46:56;10.80;99.90
32322;DHT22;61553;48.994;8.940;2024-02-21T08:49:22;11.00;99.90
32322;DHT22;61553;48.994;8.940;2024-02-21T08:51:48;11.20;99.90
32322;DHT22;61553;48.994;8.940;2024-02-21T08:54:13;11.30;99.90
32322;DHT22;61553;48.994;8.940;2024-02-21T08:56:39;11.30;99.90
32322;DHT22;61553;48.994;8.940;2024-02-21T08:59:04;11.50;99.90
32322;DHT22;61553;48.994;8.940;2024-02-21T09:01:30;11.60;99.90
32322;DHT22;61553;48.994;8.940;2024-02-21T09:03:56;11.80;99.90
32322;DHT22;61553;48.994;8.940;2024-02-21T09:06:22;11.90;99.90
32322;DHT22;61553;48.994;8.940;2024-02-21T09:08:48;12.10;99.90
32322;DHT22;61553;48.994;8.940;2024-02-21T09:11:14;12.20;99.60
32322;DHT22;61553;48.994;8.940;2024-02-21T09:13:40;12.30;99.70
32322;DHT22;61553;48.994;8.940;2024-02-21T09:16:06;12.20;99.90
32322;DHT22;61553;48.994;8.940;2024-02-21T09:18:31;12.30;99.90
32322;DHT22;61553;48.994;8.940;2024-02-21T09:20:57;12.50;99.90
32322;DHT22;61553;48.994;8.940;2024-02-21T09:23:26;12.90;98.60
32322;DHT22;61553;48.994;8.940;2024-02-21T09:25:52;12.80;98.00
32322;DHT22;61553;48.994;8.940;2024-02-21T09:28:18;12.90;98.40
32322;DHT22;61553;48.994;8.940;2024-02-21T09:30:44;13.60;97.10
32322;DHT22;61553;48.994;8.940;2024-02-21T09:33:09;13.80;95.40
32322;DHT22;61553;48.994;8.940;2024-02-21T09:35:35;14.50;94.90
32322;DHT22;61553;48.994;8.940;2024-02-21T09:38:01;14.90;93.50
32322;DHT22;61553;48.994;8.940;2024-02-21T09:40:27;14.90;92.60
32322;DHT22;61553;48.994;8.940;2024-02-21T09:43:03;15.90;91.00
32322;DHT22;61553;48.994;8.940;2024-02-21T09:45:35;15.90;87.60
32322;DHT22;61553;48.994;8.940;2024-02-21T09:50:43;16.00;86.30
32322;DHT22;61553;48.994;8.940;2024-02-21T09:53:12;15.60;87.60
32322;DHT22;61553;48.994;8.940;2024-02-21T09:55:39;15.80;85.00
32322;DHT22;61553;48.994;8.940;2024-02-21T09:58:07;15.90;83.40
32322;DHT22;61553;48.994;8.940;2024-02-21T10:00:34;15.70;84.90
32322;DHT22;61553;48.994;8.940;2024-02-21T10:03:00;15.70;83.90
32322;DHT22;61553;48.994;8.940;2024-02-21T10:05:26;16.20;83.00
32322;DHT22;61553;48.994;8.940;2024-02-21T10:07:53;17.50;78.70
32322;DHT22;61553;48.994;8.940;2024-02-21T10:10:19;18.00;76.10
32322;DHT22;61553;48.994;8.940;2024-02-21T10:12:51;17.60;75.10
32322;DHT22;61553;48.994;8.940;2024-02-21T10:15:20;17.50;76.20
32322;DHT22;61553;48.994;8.940;2024-02-21T10:17:48;18.30;72.40
32322;DHT22;61553;48.994;8.940;2024-02-21T10:20:13;18.20;72.40
32322;DHT22;61553;48.994;8.940;2024-02-21T10:22:40;17.70;72.60
32322;DHT22;61553;48.994;8.940;2024-02-21T10:25:10;18.00;71.90
32322;DHT22;61553;48.994;8.940;2024-02-21T10:27:39;17.50;73.50
32322;DHT22;61553;48.994;8.940;2024-02-21T10:30:07;18.00;72.00
32322;DHT22;61553;48.994;8.940;2024-02-21T10:32:33;17.30;73.20
32322;DHT22;61553;48.994;8.940;2024-02-21T10:35:03;17.10;73.30
32322;DHT22;61553;48.994;8.940;2024-02-21T10:37:32;17.80;70.90
32322;DHT22;61553;48.994;8.940;2024-02-21T10:39:57;18.40;70.90
32322;DHT22;61553;48.994;8.940;2024-02-21T10:42:23;18.40;68.40
32322;DHT22;61553;48.994;8.940;2024-02-21T10:44:52;17.90;70.30
32322;DHT22;61553;48.994;8.940;2024-02-21T10:47:19;17.90;69.30
32322;DHT22;61553;48.994;8.940;2024-02-21T10:49:50;17.70;70.00
32322;DHT22;61553;48.994;8.940;2024-02-21T10:55:03;17.20;71.60
32322;DHT22;61553;48.994;8.940;2024-02-21T10:57:29;17.30;70.80
32322;DHT22;61553;48.994;8.940;2024-02-21T10:59:58;17.00;72.70
32322;DHT22;61553;48.994;8.940;2024-02-21T11:02:25;16.90;71.40
32322;DHT22;61553;48.994;8.940;2024-02-21T11:04:53;17.00;71.80
32322;DHT22;61553;48.994;8.940;2024-02-21T11:07:20;17.10;71.60
32322;DHT22;61553;48.994;8.940;2024-02-21T11:09:53;16.90;71.80
32322;DHT22;61553;48.994;8.940;2024-02-21T11:12:23;16.70;73.90
32322;DHT22;61553;48.994;8.940;2024-02-21T11:14:49;17.10;71.50
32322;DHT22;61553;48.994;8.940;2024-02-21T11:17:15;17.20;70.40
32322;DHT22;61553;48.994;8.940;2024-02-21T11:19:42;17.10;70.00
32322;DHT22;61553;48.994;8.940;2024-02-21T11:22:15;16.90;69.40
32322;DHT22;61553;48.994;8.940;2024-02-21T11:24:45;16.60;70.10
32322;DHT22;61553;48.994;8.940;2024-02-21T11:29:50;16.40;70.40
32322;DHT22;61553;48.994;8.940;2024-02-21T11:32:20;16.30;70.70
32322;DHT22;61553;48.994;8.940;2024-02-21T11:35:03;16.10;71.10
32322;DHT22;61553;48.994;8.940;2024-02-21T11:37:33;15.90;71.90
32322;DHT22;61553;48.994;8.940;2024-02-21T11:39:59;16.00;70.80
32322;DHT22;61553;48.994;8.940;2024-02-21T11:42:26;15.80;72.00
32322;DHT22;61553;48.994;8.940;2024-02-21T11:44:52;15.60;70.40
32322;DHT22;61553;48.994;8.940;2024-02-21T11:47:18;15.70;71.00
32322;DHT22;61553;48.994;8.940;2024-02-21T11:49:48;15.80;71.10
32322;DHT22;61553;48.994;8.940;2024-02-21T11:52:16;15.60;71.20
32322;DHT22;61553;48.994;8.940;2024-02-21T11:54:44;15.70;72.50
32322;DHT22;61553;48.994;8.940;2024-02-21T11:57:10;15.40;71.30
32322;DHT22;61553;48.994;8.940;2024-02-21T11:59:40;15.50;71.40
32322;DHT22;61553;48.994;8.940;2024-02-21T12:02:06;14.80;72.20
32322;DHT22;61553;48.994;8.940;2024-02-21T12:04:33;14.70;72.60
32322;DHT22;61553;48.994;8.940;2024-02-21T12:06:59;14.60;72.80
32322;DHT22;61553;48.994;8.940;2024-02-21T12:09:26;14.80;73.40
32322;DHT22;61553;48.994;8.940;2024-02-21T12:14:25;15.20;72.30
32322;DHT22;61553;48.994;8.940;2024-02-21T12:16:51;15.30;72.50
32322;DHT22;61553;48.994;8.940;2024-02-21T12:19:17;15.10;72.20
32322;DHT22;61553;48.994;8.940;2024-02-21T12:21:43;15.00;73.40
32322;DHT22;61553;48.994;8.940;2024-02-21T12:24:24;15.30;72.30
32322;DHT22;61553;48.994;8.940;2024-02-21T12:26:53;15.60;71.90
32322;DHT22;61553;48.994;8.940;2024-02-21T12:29:20;15.80;71.70
32322;DHT22;61553;48.994;8.940;2024-02-21T12:31:45;15.70;71.30
32322;DHT22;61553;48.994;8.940;2024-02-21T12:34:11;15.60;72.00
32322;DHT22;61553;48.994;8.940;2024-02-21T12:36:44;15.10;73.60
32322;DHT22;61553;48.994;8.940;2024-02-21T12:39:12;14.80;73.80
32322;DHT22;61553;48.994;8.940;2024-02-21T12:41:38;14.90;73.80
32322;DHT22;61553;48.994;8.940;2024-02-21T12:44:05;15.00;74.50
32322;DHT22;61553;48.994;8.940;2024-02-21T12:46:34;14.90;74.00
32322;DHT22;61553;48.994;8.940;2024-02-21T12:49:01;14.80;74.70
32322;DHT22;61553;48.994;8.940;2024-02-21T12:51:26;15.00;73.80
32322;DHT22;61553;48.994;8.940;2024-02-21T12:53:52;14.80;74.20
32322;DHT22;61553;48.994;8.940;2024-02-21T12:56:18;14.70;74.60
32322;DHT22;61553;48.994;8.940;2024-02-21T12:58:43;14.70;74.10
32322;DHT22;61553;48.994;8.940;2024-02-21T13:01:10;14.80;73.70
32322;DHT22;61553;48.994;8.940;2024-02-21T13:03:35;14.70;74.40
32322;DHT22;61553;48.994;8.940;2024-02-21T13:06:01;14.60;74.10
32322;DHT22;61553;48.994;8.940;2024-02-21T13:08:27;14.50;74.30
32322;DHT22;61553;48.994;8.940;2024-02-21T13:10:52;14.50;73.90
32322;DHT22;61553;48.994;8.940;2024-02-21T13:13:18;14.50;73.60
32322;DHT22;61553;48.994;8.940;2024-02-21T13:15:44;14.40;74.30
32322;DHT22;61553;48.994;8.940;2024-02-21T13:18:10;14.60;74.50
32322;DHT22;61553;48.994;8.940;2024-02-21T13:20:36;14.50;74.50
32322;DHT22;61553;48.994;8.940;2024-02-21T13:23:02;14.50;74.60
32322;DHT22;61553;48.994;8.940;2024-02-21T13:25:28;14.50;75.10
32322;DHT22;61553;48.994;8.940;2024-02-21T13:27:53;14.60;74.60
32322;DHT22;61553;48.994;8.940;2024-02-21T13:30:19;14.60;74.10
32322;DHT22;61553;48.994;8.940;2024-02-21T13:32:45;14.40;74.30
32322;DHT22;61553;48.994;8.940;2024-02-21T13:35:14;14.30;74.50
32322;DHT22;61553;48.994;8.940;2024-02-21T13:37:40;14.50;74.30
32322;DHT22;61553;48.994;8.940;2024-02-21T13:40:07;14.50;74.00
32322;DHT22;61553;48.994;8.940;2024-02-21T13:42:34;14.40;74.60
32322;DHT22;61553;48.994;8.940;2024-02-21T13:45:00;14.40;75.00
32322;DHT22;61553;48.994;8.940;2024-02-21T13:47:26;14.50;73.40
32322;DHT22;61553;48.994;8.940;2024-02-21T13:49:52;14.40;74.00
32322;DHT22;61553;48.994;8.940;2024-02-21T13:52:17;14.20;75.00
32322;DHT22;61553;48.994;8.940;2024-02-21T13:54:46;14.20;75.30
32322;DHT22;61553;48.994;8.940;2024-02-21T13:57:12;14.30;75.20
32322;DHT22;61553;48.994;8.940;2024-02-21T13:59:37;14.20;74.90
32322;DHT22;61553;48.994;8.940;2024-02-21T14:02:05;14.30;74.30
32322;DHT22;61553;48.994;8.940;2024-02-21T14:04:32;14.00;75.70
32322;DHT22;61553;48.994;8.940;2024-02-21T14:06:58;13.80;75.70
32322;DHT22;61553;48.994;8.940;2024-02-21T14:09:23;14.00;75.40
32322;DHT22;61553;48.994;8.940;2024-02-21T14:11:49;14.00;75.30
32322;DHT22;61553;48.994;8.940;2024-02-21T14:14:15;14.00;75.60
32322;DHT22;61553;48.994;8.940;2024-02-21T14:16:41;14.00;75.90
32322;DHT22;61553;48.994;8.940;2024-02-21T14:19:06;14.10;75.90
32322;DHT22;61553;48.994;8.940;2024-02-21T14:21:34;13.90;76.00
32322;DHT22;61553;48.994;8.940;2024-02-21T14:24:03;13.90;76.00
32322;DHT22;61553;48.994;8.940;2024-02-21T14:26:28;13.80;76.60
32322;DHT22;61553;48.994;8.940;2024-02-21T14:28:56;13.80;76.70
32322;DHT22;61553;48.994;8.940;2024-02-21T14:31:22;13.90;76.50
32322;DHT22;61553;48.994;8.940;2024-02-21T14:33:48;14.00;76.30
32322;DHT22;61553;48.994;8.940;2024-02-21T14:36:14;14.00;77.30
32322;DHT22;61553;48.994;8.940;2024-02-21T14:38:41;14.10;76.40
32322;DHT22;61553;48.994;8.940;2024-02-21T14:41:07;14.20;76.50
32322;DHT22;61553;48.994;8.940;2024-02-21T14:43:33;14.20;75.90
32322;DHT22;61553;48.994;8.940;2024-02-21T14:46:00;14.10;75.40
32322;DHT22;61553;48.994;8.940;2024-02-21T14:48:29;14.00;75.70
32322;DHT22;61553;48.994;8.940;2024-02-21T14:50:55;13.90;76.30
32322;DHT22;61553;48.994;8.940;2024-02-21T14:53:21;13.80;76.80
32322;DHT22;61553;48.994;8.940;2024-02-21T14:55:46;13.70;77.60
32322;DHT22;61553;48.994;8.940;2024-02-21T14:58:12;13.70;77.60
32322;DHT22;61553;48.994;8.940;2024-02-21T15:00:37;13.60;78.30
32322;DHT22;61553;48.994;8.940;2024-02-21T15:03:04;13.50;79.00
32322;DHT22;61553;48.994;8.940;2024-02-21T15:05:30;13.40;79.90
32322;DHT22;61553;48.994;8.940;2024-02-21T15:07:56;13.30;80.40
32322;DHT22;61553;48.994;8.940;2024-02-21T15:10:23;13.30;81.40
32322;DHT22;61553;48.994;8.940;2024-02-21T15:12:49;13.20;81.40
32322;DHT22;61553;48.994;8.940;2024-02-21T15:15:14;13.20;81.30
32322;DHT22;61553;48.994;8.940;2024-02-21T15:17:40;13.00;82.20
32322;DHT22;61553;48.994;8.940;2024-02-21T15:20:06;13.00;81.80
32322;DHT22;61553;48.994;8.940;2024-02-21T15:22:36;13.00;82.00
32322;DHT22;61553;48.994;8.940;2024-02-21T15:25:02;12.90;82.70
32322;DHT22;61553;48.994;8.940;2024-02-21T15:27:30;12.80;82.90
32322;DHT22;61553;48.994;8.940;2024-02-21T15:29:56;12.70;83.00
32322;DHT22;61553;48.994;8.940;2024-02-21T15:32:23;12.60;82.80
32322;DHT22;61553;48.994;8.940;2024-02-21T15:34:48;12.50;83.00
32322;DHT22;61553;48.994;8.940;2024-02-21T15:37:14;12.40;83.90
32322;DHT22;61553;48.994;8.940;2024-02-21T15:39:43;12.30;84.90
32322;DHT22;61553;48.994;8.940;2024-02-21T15:42:11;12.30;85.40
32322;DHT22;61553;48.994;8.940;2024-02-21T15:44:37;12.30;86.70
32322;DHT22;61553;48.994;8.940;2024-02-21T15:47:03;12.30;85.30